Bela Vista, Brazil
Current Conditions -  °F | °C
As of 3:00 AM on Saturday 29 Nov 2014 (Local Time) from SBCG Reporting Station
Few Clouds Few Clouds  
Wind Chill: 72°   Ceiling: Unl
Heat Index: 72°   Visibility: 6mi
Dew Point: 70°   Wind: 2mph
Humidity: 94%   Direction: 330°NNW
Pressure: 29.88"   Gusts: NA
Location:  22.11°S, 56.52°W
Report Text: SBCG 290600Z 33002KT 9999 FEW030 22/21 Q1012
Loading
Personal Weather Stations






























Interactive Weather Map New forecast layout! Learn more

10-Day Weather Forecast

Advertisements
Track Severe Weather on mobile